sensor_id;sensor_type;location;lat;lon;timestamp;P1;durP1;ratioP1;P2;durP2;ratioP2
80185;SDS011;69904;52.122;5.422;2024-02-15T00:01:34;10.20;;;4.25;;
80185;SDS011;69904;52.122;5.422;2024-02-15T00:04:01;8.82;;;4.00;;
80185;SDS011;69904;52.122;5.422;2024-02-15T00:06:28;7.82;;;3.50;;
80185;SDS011;69904;52.122;5.422;2024-02-15T00:08:54;9.20;;;4.40;;
80185;SDS011;69904;52.122;5.422;2024-02-15T00:11:21;12.15;;;4.90;;
80185;SDS011;69904;52.122;5.422;2024-02-15T00:13:47;10.73;;;4.65;;
80185;SDS011;69904;52.122;5.422;2024-02-15T00:16:14;9.57;;;5.25;;
80185;SDS011;69904;52.122;5.422;2024-02-15T00:18:41;8.35;;;4.43;;
80185;SDS011;69904;52.122;5.422;2024-02-15T00:21:07;10.05;;;4.40;;
80185;SDS011;69904;52.122;5.422;2024-02-15T00:23:34;11.73;;;4.60;;
80185;SDS011;69904;52.122;5.422;2024-02-15T00:26:01;12.48;;;5.00;;
80185;SDS011;69904;52.122;5.422;2024-02-15T00:28:27;11.60;;;5.20;;
80185;SDS011;69904;52.122;5.422;2024-02-15T00:30:54;10.90;;;4.38;;
80185;SDS011;69904;52.122;5.422;2024-02-15T00:33:20;5.95;;;3.35;;
80185;SDS011;69904;52.122;5.422;2024-02-15T00:35:48;7.82;;;4.22;;
80185;SDS011;69904;52.122;5.422;2024-02-15T00:38:18;7.55;;;4.22;;
80185;SDS011;69904;52.122;5.422;2024-02-15T00:40:45;8.13;;;4.20;;
80185;SDS011;69904;52.122;5.422;2024-02-15T00:43:11;8.48;;;3.70;;
80185;SDS011;69904;52.122;5.422;2024-02-15T00:45:39;6.05;;;3.28;;
80185;SDS011;69904;52.122;5.422;2024-02-15T00:48:06;10.13;;;3.95;;
80185;SDS011;69904;52.122;5.422;2024-02-15T00:50:33;13.63;;;4.45;;
80185;SDS011;69904;52.122;5.422;2024-02-15T00:52:59;7.85;;;3.78;;
80185;SDS011;69904;52.122;5.422;2024-02-15T00:55:26;8.13;;;3.55;;
80185;SDS011;69904;52.122;5.422;2024-02-15T00:57:53;6.82;;;4.43;;
80185;SDS011;69904;52.122;5.422;2024-02-15T01:00:19;6.38;;;3.67;;
80185;SDS011;69904;52.122;5.422;2024-02-15T01:02:46;10.20;;;3.90;;
80185;SDS011;69904;52.122;5.422;2024-02-15T01:05:13;8.85;;;3.78;;
80185;SDS011;69904;52.122;5.422;2024-02-15T01:07:41;8.52;;;3.20;;
80185;SDS011;69904;52.122;5.422;2024-02-15T01:10:08;8.80;;;3.88;;
80185;SDS011;69904;52.122;5.422;2024-02-15T01:12:34;7.93;;;3.67;;
80185;SDS011;69904;52.122;5.422;2024-02-15T01:15:01;6.50;;;3.28;;
80185;SDS011;69904;52.122;5.422;2024-02-15T01:17:29;7.75;;;3.83;;
80185;SDS011;69904;52.122;5.422;2024-02-15T01:19:55;6.43;;;3.33;;
80185;SDS011;69904;52.122;5.422;2024-02-15T01:22:22;7.93;;;3.78;;
80185;SDS011;69904;52.122;5.422;2024-02-15T01:24:51;18.02;;;4.88;;
80185;SDS011;69904;52.122;5.422;2024-02-15T01:27:17;7.57;;;4.00;;
80185;SDS011;69904;52.122;5.422;2024-02-15T01:29:44;8.10;;;4.38;;
80185;SDS011;69904;52.122;5.422;2024-02-15T01:32:10;8.88;;;4.50;;
80185;SDS011;69904;52.122;5.422;2024-02-15T01:34:37;12.27;;;5.05;;
80185;SDS011;69904;52.122;5.422;2024-02-15T01:37:03;10.07;;;4.75;;
80185;SDS011;69904;52.122;5.422;2024-02-15T01:39:30;12.68;;;6.32;;
80185;SDS011;69904;52.122;5.422;2024-02-15T01:41:56;15.20;;;6.55;;
80185;SDS011;69904;52.122;5.422;2024-02-15T01:44:23;12.07;;;6.78;;
80185;SDS011;69904;52.122;5.422;2024-02-15T01:46:50;13.02;;;6.90;;
80185;SDS011;69904;52.122;5.422;2024-02-15T01:49:21;15.88;;;7.78;;
80185;SDS011;69904;52.122;5.422;2024-02-15T01:51:51;13.80;;;6.95;;
80185;SDS011;69904;52.122;5.422;2024-02-15T01:54:22;13.07;;;7.03;;
80185;SDS011;69904;52.122;5.422;2024-02-15T01:59:16;16.85;;;6.68;;
80185;SDS011;69904;52.122;5.422;2024-02-15T02:01:44;12.23;;;6.05;;
80185;SDS011;69904;52.122;5.422;2024-02-15T02:04:11;17.35;;;7.03;;
80185;SDS011;69904;52.122;5.422;2024-02-15T02:06:37;12.98;;;6.53;;
80185;SDS011;69904;52.122;5.422;2024-02-15T02:09:04;16.10;;;5.90;;
80185;SDS011;69904;52.122;5.422;2024-02-15T02:11:31;13.95;;;6.55;;
80185;SDS011;69904;52.122;5.422;2024-02-15T02:13:58;16.50;;;7.93;;
80185;SDS011;69904;52.122;5.422;2024-02-15T02:16:25;14.57;;;7.13;;
80185;SDS011;69904;52.122;5.422;2024-02-15T02:18:53;16.33;;;7.07;;
80185;SDS011;69904;52.122;5.422;2024-02-15T02:21:21;15.27;;;6.70;;
80185;SDS011;69904;52.122;5.422;2024-02-15T02:23:48;12.00;;;5.60;;
80185;SDS011;69904;52.122;5.422;2024-02-15T02:26:21;11.65;;;6.35;;
80185;SDS011;69904;52.122;5.422;2024-02-15T02:28:49;13.40;;;6.38;;
80185;SDS011;69904;52.122;5.422;2024-02-15T02:31:17;10.57;;;6.43;;
80185;SDS011;69904;52.122;5.422;2024-02-15T02:33:47;13.95;;;6.78;;
80185;SDS011;69904;52.122;5.422;2024-02-15T02:36:15;9.27;;;5.72;;
80185;SDS011;69904;52.122;5.422;2024-02-15T02:38:42;15.38;;;5.97;;
80185;SDS011;69904;52.122;5.422;2024-02-15T02:41:11;17.60;;;6.68;;
80185;SDS011;69904;52.122;5.422;2024-02-15T02:43:41;12.27;;;6.50;;
80185;SDS011;69904;52.122;5.422;2024-02-15T02:46:10;13.27;;;5.95;;
80185;SDS011;69904;52.122;5.422;2024-02-15T02:48:38;10.82;;;6.18;;
80185;SDS011;69904;52.122;5.422;2024-02-15T02:51:06;8.57;;;5.75;;
80185;SDS011;69904;52.122;5.422;2024-02-15T02:53:33;11.73;;;5.78;;
80185;SDS011;69904;52.122;5.422;2024-02-15T02:56:00;11.65;;;4.90;;
80185;SDS011;69904;52.122;5.422;2024-02-15T02:58:26;9.75;;;4.68;;
80185;SDS011;69904;52.122;5.422;2024-02-15T03:00:53;10.20;;;5.57;;
80185;SDS011;69904;52.122;5.422;2024-02-15T03:03:20;10.60;;;5.20;;
80185;SDS011;69904;52.122;5.422;2024-02-15T03:05:49;8.55;;;5.05;;
80185;SDS011;69904;52.122;5.422;2024-02-15T03:08:16;12.90;;;5.03;;
80185;SDS011;69904;52.122;5.422;2024-02-15T03:10:43;13.45;;;4.85;;
80185;SDS011;69904;52.122;5.422;2024-02-15T03:13:10;7.53;;;3.85;;
80185;SDS011;69904;52.122;5.422;2024-02-15T03:15:36;12.85;;;4.57;;
80185;SDS011;69904;52.122;5.422;2024-02-15T03:18:03;8.45;;;4.65;;
80185;SDS011;69904;52.122;5.422;2024-02-15T03:20:33;9.27;;;4.80;;
80185;SDS011;69904;52.122;5.422;2024-02-15T03:23:01;11.10;;;5.72;;
80185;SDS011;69904;52.122;5.422;2024-02-15T03:25:28;8.52;;;5.35;;
80185;SDS011;69904;52.122;5.422;2024-02-15T03:30:23;6.57;;;3.78;;
80185;SDS011;69904;52.122;5.422;2024-02-15T03:32:55;11.30;;;4.72;;
80185;SDS011;69904;52.122;5.422;2024-02-15T03:35:23;12.07;;;4.55;;
80185;SDS011;69904;52.122;5.422;2024-02-15T03:37:51;10.40;;;4.95;;
80185;SDS011;69904;52.122;5.422;2024-02-15T03:40:20;10.82;;;4.63;;
80185;SDS011;69904;52.122;5.422;2024-02-15T03:42:48;11.32;;;5.03;;
80185;SDS011;69904;52.122;5.422;2024-02-15T03:45:16;9.07;;;4.45;;
80185;SDS011;69904;52.122;5.422;2024-02-15T03:47:43;10.30;;;4.47;;
80185;SDS011;69904;52.122;5.422;2024-02-15T03:50:09;10.32;;;4.45;;
80185;SDS011;69904;52.122;5.422;2024-02-15T03:52:36;6.90;;;4.10;;
80185;SDS011;69904;52.122;5.422;2024-02-15T03:55:04;11.18;;;4.40;;
80185;SDS011;69904;52.122;5.422;2024-02-15T03:57:31;10.63;;;4.38;;
80185;SDS011;69904;52.122;5.422;2024-02-15T03:59:59;6.53;;;4.57;;
80185;SDS011;69904;52.122;5.422;2024-02-15T04:02:26;13.10;;;3.92;;
80185;SDS011;69904;52.122;5.422;2024-02-15T04:04:54;6.57;;;3.97;;
80185;SDS011;69904;52.122;5.422;2024-02-15T04:07:21;11.18;;;4.60;;
80185;SDS011;69904;52.122;5.422;2024-02-15T04:09:51;6.63;;;4.18;;
80185;SDS011;69904;52.122;5.422;2024-02-15T04:12:18;8.40;;;3.97;;
80185;SDS011;69904;52.122;5.422;2024-02-15T04:14:44;9.65;;;3.88;;
80185;SDS011;69904;52.122;5.422;2024-02-15T04:17:15;9.02;;;4.45;;
80185;SDS011;69904;52.122;5.422;2024-02-15T04:19:48;12.15;;;4.35;;
80185;SDS011;69904;52.122;5.422;2024-02-15T04:22:16;8.93;;;3.97;;
80185;SDS011;69904;52.122;5.422;2024-02-15T04:24:43;11.43;;;4.95;;
80185;SDS011;69904;52.122;5.422;2024-02-15T04:27:11;6.95;;;3.92;;
80185;SDS011;69904;52.122;5.422;2024-02-15T04:29:39;9.98;;;3.53;;
80185;SDS011;69904;52.122;5.422;2024-02-15T04:32:10;10.57;;;4.07;;
80185;SDS011;69904;52.122;5.422;2024-02-15T04:34:41;7.57;;;3.42;;
80185;SDS011;69904;52.122;5.422;2024-02-15T04:37:08;7.43;;;4.10;;
80185;SDS011;69904;52.122;5.422;2024-02-15T04:39:38;8.10;;;3.60;;
80185;SDS011;69904;52.122;5.422;2024-02-15T04:42:04;6.05;;;3.17;;
80185;SDS011;69904;52.122;5.422;2024-02-15T04:44:40;9.48;;;3.40;;
80185;SDS011;69904;52.122;5.422;2024-02-15T04:47:07;7.10;;;3.47;;
80185;SDS011;69904;52.122;5.422;2024-02-15T04:49:34;9.10;;;3.25;;
80185;SDS011;69904;52.122;5.422;2024-02-15T04:52:04;10.05;;;3.78;;
80185;SDS011;69904;52.122;5.422;2024-02-15T04:54:32;11.45;;;4.28;;
80185;SDS011;69904;52.122;5.422;2024-02-15T04:56:59;7.63;;;3.80;;
80185;SDS011;69904;52.122;5.422;2024-02-15T04:59:27;9.75;;;3.97;;
80185;SDS011;69904;52.122;5.422;2024-02-15T05:01:55;9.35;;;3.67;;
80185;SDS011;69904;52.122;5.422;2024-02-15T05:04:24;14.88;;;4.28;;
80185;SDS011;69904;52.122;5.422;2024-02-15T05:06:51;9.55;;;3.95;;
80185;SDS011;69904;52.122;5.422;2024-02-15T05:09:19;11.02;;;3.53;;
80185;SDS011;69904;52.122;5.422;2024-02-15T05:11:46;9.98;;;3.58;;
80185;SDS011;69904;52.122;5.422;2024-02-15T05:14:14;8.10;;;3.75;;
80185;SDS011;69904;52.122;5.422;2024-02-15T05:16:45;7.68;;;3.60;;
80185;SDS011;69904;52.122;5.422;2024-02-15T05:19:14;10.93;;;4.15;;
80185;SDS011;69904;52.122;5.422;2024-02-15T05:21:42;7.90;;;3.95;;
80185;SDS011;69904;52.122;5.422;2024-02-15T05:24:15;14.80;;;4.55;;
80185;SDS011;69904;52.122;5.422;2024-02-15T05:26:43;7.43;;;3.10;;
80185;SDS011;69904;52.122;5.422;2024-02-15T05:29:15;7.13;;;4.00;;
80185;SDS011;69904;52.122;5.422;2024-02-15T05:31:41;8.18;;;4.13;;
80185;SDS011;69904;52.122;5.422;2024-02-15T05:34:09;9.30;;;4.40;;
80185;SDS011;69904;52.122;5.422;2024-02-15T05:36:38;7.25;;;3.10;;
80185;SDS011;69904;52.122;5.422;2024-02-15T05:39:05;5.82;;;3.67;;
80185;SDS011;69904;52.122;5.422;2024-02-15T05:41:32;7.15;;;3.70;;
80185;SDS011;69904;52.122;5.422;2024-02-15T05:43:59;8.57;;;3.83;;
80185;SDS011;69904;52.122;5.422;2024-02-15T05:46:25;5.78;;;2.92;;
80185;SDS011;69904;52.122;5.422;2024-02-15T05:48:54;8.50;;;3.95;;
80185;SDS011;69904;52.122;5.422;2024-02-15T05:51:21;8.15;;;4.25;;
80185;SDS011;69904;52.122;5.422;2024-02-15T05:53:48;6.85;;;4.00;;
80185;SDS011;69904;52.122;5.422;2024-02-15T05:56:16;4.57;;;3.10;;
80185;SDS011;69904;52.122;5.422;2024-02-15T05:58:42;6.82;;;3.58;;
80185;SDS011;69904;52.122;5.422;2024-02-15T06:01:09;8.35;;;3.97;;
80185;SDS011;69904;52.122;5.422;2024-02-15T06:03:39;6.88;;;3.80;;
80185;SDS011;69904;52.122;5.422;2024-02-15T06:06:07;13.32;;;4.07;;
80185;SDS011;69904;52.122;5.422;2024-02-15T06:08:34;6.78;;;3.15;;
80185;SDS011;69904;52.122;5.422;2024-02-15T06:11:02;9.50;;;3.70;;
80185;SDS011;69904;52.122;5.422;2024-02-15T06:13:30;4.93;;;3.33;;
80185;SDS011;69904;52.122;5.422;2024-02-15T06:15:57;6.68;;;3.25;;
80185;SDS011;69904;52.122;5.422;2024-02-15T06:18:25;6.60;;;3.75;;
80185;SDS011;69904;52.122;5.422;2024-02-15T06:20:55;11.43;;;3.90;;
80185;SDS011;69904;52.122;5.422;2024-02-15T06:23:23;6.45;;;4.30;;
80185;SDS011;69904;52.122;5.422;2024-02-15T06:25:52;4.85;;;3.53;;
80185;SDS011;69904;52.122;5.422;2024-02-15T06:28:20;9.77;;;4.07;;
80185;SDS011;69904;52.122;5.422;2024-02-15T06:31:08;7.95;;;3.67;;
80185;SDS011;69904;52.122;5.422;2024-02-15T06:33:55;8.70;;;4.65;;
80185;SDS011;69904;52.122;5.422;2024-02-15T06:36:46;8.10;;;3.95;;
80185;SDS011;69904;52.122;5.422;2024-02-15T06:39:32;7.45;;;4.07;;
80185;SDS011;69904;52.122;5.422;2024-02-15T06:42:10;7.45;;;4.30;;
80185;SDS011;69904;52.122;5.422;2024-02-15T06:44:38;9.13;;;4.60;;
80185;SDS011;69904;52.122;5.422;2024-02-15T06:47:06;8.68;;;4.57;;
80185;SDS011;69904;52.122;5.422;2024-02-15T06:49:33;9.07;;;4.47;;
80185;SDS011;69904;52.122;5.422;2024-02-15T06:52:00;8.43;;;4.30;;
80185;SDS011;69904;52.122;5.422;2024-02-15T06:54:28;8.48;;;4.38;;
80185;SDS011;69904;52.122;5.422;2024-02-15T06:56:55;7.80;;;4.85;;
80185;SDS011;69904;52.122;5.422;2024-02-15T06:59:21;8.07;;;4.55;;
80185;SDS011;69904;52.122;5.422;2024-02-15T07:01:49;5.07;;;4.45;;
80185;SDS011;69904;52.122;5.422;2024-02-15T07:04:18;10.07;;;5.03;;
80185;SDS011;69904;52.122;5.422;2024-02-15T07:06:47;8.50;;;5.00;;
80185;SDS011;69904;52.122;5.422;2024-02-15T07:09:15;7.85;;;4.63;;
80185;SDS011;69904;52.122;5.422;2024-02-15T07:11:44;6.70;;;4.47;;
80185;SDS011;69904;52.122;5.422;2024-02-15T07:14:16;7.38;;;4.38;;
80185;SDS011;69904;52.122;5.422;2024-02-15T07:16:44;7.53;;;4.30;;
80185;SDS011;69904;52.122;5.422;2024-02-15T07:19:12;8.23;;;4.15;;
80185;SDS011;69904;52.122;5.422;2024-02-15T07:21:42;8.27;;;4.13;;
80185;SDS011;69904;52.122;5.422;2024-02-15T07:24:08;6.32;;;4.80;;
80185;SDS011;69904;52.122;5.422;2024-02-15T07:26:36;9.50;;;4.43;;
80185;SDS011;69904;52.122;5.422;2024-02-15T07:31:34;6.43;;;3.47;;
80185;SDS011;69904;52.122;5.422;2024-02-15T07:34:01;5.28;;;3.63;;
80185;SDS011;69904;52.122;5.422;2024-02-15T07:38:54;6.63;;;3.65;;
80185;SDS011;69904;52.122;5.422;2024-02-15T07:41:28;7.60;;;4.13;;
80185;SDS011;69904;52.122;5.422;2024-02-15T07:43:54;4.72;;;3.30;;
80185;SDS011;69904;52.122;5.422;2024-02-15T07:46:22;4.55;;;3.42;;
80185;SDS011;69904;52.122;5.422;2024-02-15T07:48:50;7.80;;;3.67;;
80185;SDS011;69904;52.122;5.422;2024-02-15T07:51:17;6.38;;;3.38;;
80185;SDS011;69904;52.122;5.422;2024-02-15T07:53:45;5.82;;;3.65;;
80185;SDS011;69904;52.122;5.422;2024-02-15T07:56:13;4.40;;;2.42;;
80185;SDS011;69904;52.122;5.422;2024-02-15T07:58:41;5.10;;;3.05;;
80185;SDS011;69904;52.122;5.422;2024-02-15T08:01:19;4.47;;;2.80;;
80185;SDS011;69904;52.122;5.422;2024-02-15T08:03:51;4.32;;;2.72;;
80185;SDS011;69904;52.122;5.422;2024-02-15T08:06:20;4.05;;;2.45;;
80185;SDS011;69904;52.122;5.422;2024-02-15T08:08:47;5.85;;;2.55;;
80185;SDS011;69904;52.122;5.422;2024-02-15T08:11:14;4.38;;;2.10;;
80185;SDS011;69904;52.122;5.422;2024-02-15T08:16:12;3.42;;;1.83;;
80185;SDS011;69904;52.122;5.422;2024-02-15T08:18:38;4.90;;;2.90;;
80185;SDS011;69904;52.122;5.422;2024-02-15T08:23:32;2.72;;;1.83;;
80185;SDS011;69904;52.122;5.422;2024-02-15T08:25:58;2.83;;;1.92;;
80185;SDS011;69904;52.122;5.422;2024-02-15T08:28:25;3.83;;;1.70;;
80185;SDS011;69904;52.122;5.422;2024-02-15T08:30:52;4.63;;;1.73;;
80185;SDS011;69904;52.122;5.422;2024-02-15T08:33:20;3.45;;;1.83;;
80185;SDS011;69904;52.122;5.422;2024-02-15T08:35:47;3.08;;;1.92;;
80185;SDS011;69904;52.122;5.422;2024-02-15T08:38:17;2.33;;;1.52;;
80185;SDS011;69904;52.122;5.422;2024-02-15T08:40:46;3.65;;;1.55;;
80185;SDS011;69904;52.122;5.422;2024-02-15T08:43:13;2.50;;;1.90;;
80185;SDS011;69904;52.122;5.422;2024-02-15T08:45:41;2.70;;;1.48;;
80185;SDS011;69904;52.122;5.422;2024-02-15T08:48:09;1.88;;;1.30;;
80185;SDS011;69904;52.122;5.422;2024-02-15T08:50:35;1.95;;;1.40;;
80185;SDS011;69904;52.122;5.422;2024-02-15T08:53:02;9.73;;;1.80;;
80185;SDS011;69904;52.122;5.422;2024-02-15T08:55:32;2.53;;;1.73;;
80185;SDS011;69904;52.122;5.422;2024-02-15T08:58:01;1.88;;;1.30;;
80185;SDS011;69904;52.122;5.422;2024-02-15T09:00:29;1.63;;;0.85;;
80185;SDS011;69904;52.122;5.422;2024-02-15T09:05:23;5.55;;;1.20;;
80185;SDS011;69904;52.122;5.422;2024-02-15T09:10:18;2.65;;;1.17;;
80185;SDS011;69904;52.122;5.422;2024-02-15T09:12:45;3.00;;;1.27;;
80185;SDS011;69904;52.122;5.422;2024-02-15T09:15:16;2.42;;;1.17;;
80185;SDS011;69904;52.122;5.422;2024-02-15T09:17:43;2.80;;;1.00;;
80185;SDS011;69904;52.122;5.422;2024-02-15T09:20:12;3.90;;;1.77;;
80185;SDS011;69904;52.122;5.422;2024-02-15T09:22:49;1.90;;;1.20;;
80185;SDS011;69904;52.122;5.422;2024-02-15T09:25:22;2.30;;;1.10;;
80185;SDS011;69904;52.122;5.422;2024-02-15T09:30:16;2.97;;;1.45;;
80185;SDS011;69904;52.122;5.422;2024-02-15T09:32:44;3.50;;;1.55;;
80185;SDS011;69904;52.122;5.422;2024-02-15T09:35:12;2.50;;;1.25;;
80185;SDS011;69904;52.122;5.422;2024-02-15T09:37:47;2.38;;;1.30;;
80185;SDS011;69904;52.122;5.422;2024-02-15T09:40:18;3.05;;;1.75;;
80185;SDS011;69904;52.122;5.422;2024-02-15T09:42:46;3.50;;;1.50;;
80185;SDS011;69904;52.122;5.422;2024-02-15T09:45:13;3.58;;;1.73;;
80185;SDS011;69904;52.122;5.422;2024-02-15T09:47:44;3.33;;;1.25;;
80185;SDS011;69904;52.122;5.422;2024-02-15T09:50:12;2.67;;;1.50;;
80185;SDS011;69904;52.122;5.422;2024-02-15T09:52:44;5.28;;;1.95;;
80185;SDS011;69904;52.122;5.422;2024-02-15T09:55:17;4.65;;;1.90;;
80185;SDS011;69904;52.122;5.422;2024-02-15T09:57:45;5.35;;;1.92;;
80185;SDS011;69904;52.122;5.422;2024-02-15T10:00:15;4.30;;;1.65;;
80185;SDS011;69904;52.122;5.422;2024-02-15T10:02:44;4.47;;;1.40;;
80185;SDS011;69904;52.122;5.422;2024-02-15T10:05:13;5.00;;;1.83;;
80185;SDS011;69904;52.122;5.422;2024-02-15T10:07:43;3.70;;;1.80;;
80185;SDS011;69904;52.122;5.422;2024-02-15T10:12:51;4.40;;;1.65;;
80185;SDS011;69904;52.122;5.422;2024-02-15T10:18:03;4.15;;;1.38;;
80185;SDS011;69904;52.122;5.422;2024-02-15T10:20:40;3.90;;;1.48;;
80185;SDS011;69904;52.122;5.422;2024-02-15T10:23:11;3.83;;;1.75;;
80185;SDS011;69904;52.122;5.422;2024-02-15T10:25:39;6.03;;;1.70;;
80185;SDS011;69904;52.122;5.422;2024-02-15T10:28:08;5.93;;;1.92;;
80185;SDS011;69904;52.122;5.422;2024-02-15T10:30:36;4.13;;;1.63;;
80185;SDS011;69904;52.122;5.422;2024-02-15T10:33:04;4.75;;;2.20;;
80185;SDS011;69904;52.122;5.422;2024-02-15T10:35:31;2.92;;;1.55;;
80185;SDS011;69904;52.122;5.422;2024-02-15T10:38:10;3.65;;;1.70;;
80185;SDS011;69904;52.122;5.422;2024-02-15T10:40:42;4.57;;;1.83;;
80185;SDS011;69904;52.122;5.422;2024-02-15T10:45:40;3.13;;;1.45;;
80185;SDS011;69904;52.122;5.422;2024-02-15T10:48:10;3.70;;;1.80;;
80185;SDS011;69904;52.122;5.422;2024-02-15T10:50:39;7.15;;;1.88;;
80185;SDS011;69904;52.122;5.422;2024-02-15T10:53:10;5.35;;;2.50;;
80185;SDS011;69904;52.122;5.422;2024-02-15T10:59:00;6.07;;;2.10;;
80185;SDS011;69904;52.122;5.422;2024-02-15T11:01:36;4.43;;;2.05;;
80185;SDS011;69904;52.122;5.422;2024-02-15T11:04:08;6.93;;;2.45;;
80185;SDS011;69904;52.122;5.422;2024-02-15T11:06:40;4.82;;;2.35;;
80185;SDS011;69904;52.122;5.422;2024-02-15T11:09:10;8.52;;;2.67;;
80185;SDS011;69904;52.122;5.422;2024-02-15T11:11:38;7.07;;;2.30;;
80185;SDS011;69904;52.122;5.422;2024-02-15T11:14:25;7.55;;;2.60;;
80185;SDS011;69904;52.122;5.422;2024-02-15T11:16:55;7.38;;;2.83;;
80185;SDS011;69904;52.122;5.422;2024-02-15T11:22:01;6.82;;;2.78;;
80185;SDS011;69904;52.122;5.422;2024-02-15T11:24:35;5.25;;;2.92;;
80185;SDS011;69904;52.122;5.422;2024-02-15T11:27:03;7.28;;;2.85;;
80185;SDS011;69904;52.122;5.422;2024-02-15T11:29:50;8.30;;;2.65;;
80185;SDS011;69904;52.122;5.422;2024-02-15T11:35:15;6.00;;;3.22;;
80185;SDS011;69904;52.122;5.422;2024-02-15T11:40:26;8.52;;;3.05;;
80185;SDS011;69904;52.122;5.422;2024-02-15T11:46:22;8.55;;;3.20;;
80185;SDS011;69904;52.122;5.422;2024-02-15T11:48:58;5.15;;;3.22;;
80185;SDS011;69904;52.122;5.422;2024-02-15T11:51:33;7.57;;;2.75;;
80185;SDS011;69904;52.122;5.422;2024-02-15T11:54:09;4.63;;;2.95;;
80185;SDS011;69904;52.122;5.422;2024-02-15T11:59:15;7.20;;;3.40;;
80185;SDS011;69904;52.122;5.422;2024-02-15T12:02:08;7.50;;;3.30;;
80185;SDS011;69904;52.122;5.422;2024-02-15T12:04:54;7.90;;;3.60;;
80185;SDS011;69904;52.122;5.422;2024-02-15T12:07:39;9.82;;;3.45;;
80185;SDS011;69904;52.122;5.422;2024-02-15T12:10:24;7.78;;;3.58;;
80185;SDS011;69904;52.122;5.422;2024-02-15T12:13:09;3.88;;;2.95;;
80185;SDS011;69904;52.122;5.422;2024-02-15T12:15:55;8.00;;;3.85;;
80185;SDS011;69904;52.122;5.422;2024-02-15T12:18:41;5.68;;;3.35;;
80185;SDS011;69904;52.122;5.422;2024-02-15T12:21:09;5.55;;;3.10;;
80185;SDS011;69904;52.122;5.422;2024-02-15T12:23:38;8.02;;;3.20;;
80185;SDS011;69904;52.122;5.422;2024-02-15T12:26:07;8.23;;;3.35;;
80185;SDS011;69904;52.122;5.422;2024-02-15T12:28:34;7.63;;;3.25;;
80185;SDS011;69904;52.122;5.422;2024-02-15T12:31:01;8.15;;;3.42;;
80185;SDS011;69904;52.122;5.422;2024-02-15T12:33:28;7.22;;;3.35;;
80185;SDS011;69904;52.122;5.422;2024-02-15T12:38:35;5.20;;;3.03;;
80185;SDS011;69904;52.122;5.422;2024-02-15T12:41:20;7.43;;;3.78;;
80185;SDS011;69904;52.122;5.422;2024-02-15T12:43:54;4.78;;;2.83;;
80185;SDS011;69904;52.122;5.422;2024-02-15T12:46:23;6.95;;;2.97;;
80185;SDS011;69904;52.122;5.422;2024-02-15T12:48:49;8.15;;;3.13;;
80185;SDS011;69904;52.122;5.422;2024-02-15T12:51:16;5.47;;;2.92;;
80185;SDS011;69904;52.122;5.422;2024-02-15T12:53:43;6.82;;;3.38;;
80185;SDS011;69904;52.122;5.422;2024-02-15T12:56:10;4.38;;;2.67;;
80185;SDS011;69904;52.122;5.422;2024-02-15T12:58:36;4.38;;;2.72;;
80185;SDS011;69904;52.122;5.422;2024-02-15T13:01:02;5.03;;;1.90;;
80185;SDS011;69904;52.122;5.422;2024-02-15T13:03:30;4.75;;;2.38;;
80185;SDS011;69904;52.122;5.422;2024-02-15T13:05:57;3.97;;;2.10;;
80185;SDS011;69904;52.122;5.422;2024-02-15T13:08:24;4.95;;;1.80;;
80185;SDS011;69904;52.122;5.422;2024-02-15T13:10:50;2.60;;;1.75;;
80185;SDS011;69904;52.122;5.422;2024-02-15T13:15:44;3.50;;;2.00;;
80185;SDS011;69904;52.122;5.422;2024-02-15T13:18:12;4.60;;;1.42;;
80185;SDS011;69904;52.122;5.422;2024-02-15T13:20:40;5.43;;;1.83;;
80185;SDS011;69904;52.122;5.422;2024-02-15T13:23:09;5.57;;;1.65;;
80185;SDS011;69904;52.122;5.422;2024-02-15T13:25:49;3.20;;;1.20;;
80185;SDS011;69904;52.122;5.422;2024-02-15T13:28:16;1.75;;;1.30;;
80185;SDS011;69904;52.122;5.422;2024-02-15T13:30:42;3.63;;;1.55;;
80185;SDS011;69904;52.122;5.422;2024-02-15T13:33:11;3.30;;;1.25;;
80185;SDS011;69904;52.122;5.422;2024-02-15T13:35:39;2.67;;;1.50;;
80185;SDS011;69904;52.122;5.422;2024-02-15T13:38:06;5.47;;;1.75;;
80185;SDS011;69904;52.122;5.422;2024-02-15T13:40:35;5.05;;;1.50;;
80185;SDS011;69904;52.122;5.422;2024-02-15T13:43:01;3.50;;;1.52;;
80185;SDS011;69904;52.122;5.422;2024-02-15T13:45:31;3.13;;;1.40;;
80185;SDS011;69904;52.122;5.422;2024-02-15T13:48:05;5.65;;;1.20;;
80185;SDS011;69904;52.122;5.422;2024-02-15T13:50:36;4.50;;;1.50;;
80185;SDS011;69904;52.122;5.422;2024-02-15T13:53:05;2.55;;;1.20;;
80185;SDS011;69904;52.122;5.422;2024-02-15T13:55:32;4.18;;;1.35;;
80185;SDS011;69904;52.122;5.422;2024-02-15T13:58:00;5.97;;;1.58;;
80185;SDS011;69904;52.122;5.422;2024-02-15T14:00:28;4.47;;;1.48;;
80185;SDS011;69904;52.122;5.422;2024-02-15T14:03:01;5.25;;;2.13;;
80185;SDS011;69904;52.122;5.422;2024-02-15T14:05:29;3.42;;;1.50;;
80185;SDS011;69904;52.122;5.422;2024-02-15T14:07:57;5.75;;;1.65;;
80185;SDS011;69904;52.122;5.422;2024-02-15T14:10:26;7.68;;;1.75;;
80185;SDS011;69904;52.122;5.422;2024-02-15T14:12:54;6.15;;;1.60;;
80185;SDS011;69904;52.122;5.422;2024-02-15T14:15:21;3.92;;;2.08;;
80185;SDS011;69904;52.122;5.422;2024-02-15T14:17:48;5.82;;;1.80;;
80185;SDS011;69904;52.122;5.422;2024-02-15T14:20:15;5.07;;;2.10;;
80185;SDS011;69904;52.122;5.422;2024-02-15T14:22:45;4.10;;;1.50;;
80185;SDS011;69904;52.122;5.422;2024-02-15T14:25:15;5.68;;;1.80;;
80185;SDS011;69904;52.122;5.422;2024-02-15T14:27:42;3.78;;;1.45;;
80185;SDS011;69904;52.122;5.422;2024-02-15T14:32:54;3.75;;;1.63;;
80185;SDS011;69904;52.122;5.422;2024-02-15T14:35:31;3.65;;;1.70;;
80185;SDS011;69904;52.122;5.422;2024-02-15T14:38:03;3.28;;;1.63;;
80185;SDS011;69904;52.122;5.422;2024-02-15T14:40:38;5.38;;;1.65;;
80185;SDS011;69904;52.122;5.422;2024-02-15T14:43:11;4.53;;;1.88;;
80185;SDS011;69904;52.122;5.422;2024-02-15T14:45:44;4.63;;;1.42;;
80185;SDS011;69904;52.122;5.422;2024-02-15T14:50:39;4.20;;;1.42;;
80185;SDS011;69904;52.122;5.422;2024-02-15T14:53:06;1.80;;;1.00;;
80185;SDS011;69904;52.122;5.422;2024-02-15T14:55:35;4.22;;;1.60;;
80185;SDS011;69904;52.122;5.422;2024-02-15T14:58:05;4.03;;;1.40;;
80185;SDS011;69904;52.122;5.422;2024-02-15T15:00:39;2.90;;;1.40;;
80185;SDS011;69904;52.122;5.422;2024-02-15T15:03:08;4.38;;;1.60;;
80185;SDS011;69904;52.122;5.422;2024-02-15T15:05:34;3.45;;;1.65;;
80185;SDS011;69904;52.122;5.422;2024-02-15T15:08:19;4.90;;;1.60;;
80185;SDS011;69904;52.122;5.422;2024-02-15T15:11:04;3.00;;;1.45;;
80185;SDS011;69904;52.122;5.422;2024-02-15T15:13:50;3.85;;;1.50;;
80185;SDS011;69904;52.122;5.422;2024-02-15T15:16:18;3.47;;;1.42;;
80185;SDS011;69904;52.122;5.422;2024-02-15T15:18:47;4.93;;;1.30;;
80185;SDS011;69904;52.122;5.422;2024-02-15T15:21:18;2.95;;;1.20;;
80185;SDS011;69904;52.122;5.422;2024-02-15T15:23:45;4.03;;;1.65;;
80185;SDS011;69904;52.122;5.422;2024-02-15T15:26:17;4.60;;;1.52;;
80185;SDS011;69904;52.122;5.422;2024-02-15T15:28:48;3.92;;;1.38;;
80185;SDS011;69904;52.122;5.422;2024-02-15T15:31:16;3.67;;;1.60;;
80185;SDS011;69904;52.122;5.422;2024-02-15T15:33:43;2.75;;;1.52;;
80185;SDS011;69904;52.122;5.422;2024-02-15T15:36:10;5.78;;;2.00;;
80185;SDS011;69904;52.122;5.422;2024-02-15T15:38:38;5.28;;;1.92;;
80185;SDS011;69904;52.122;5.422;2024-02-15T15:43:33;2.85;;;2.05;;
80185;SDS011;69904;52.122;5.422;2024-02-15T15:45:59;4.70;;;2.25;;
80185;SDS011;69904;52.122;5.422;2024-02-15T15:48:26;4.00;;;1.83;;
80185;SDS011;69904;52.122;5.422;2024-02-15T15:50:52;7.35;;;1.80;;
80185;SDS011;69904;52.122;5.422;2024-02-15T15:53:20;4.05;;;2.35;;
80185;SDS011;69904;52.122;5.422;2024-02-15T15:55:47;5.82;;;2.30;;
80185;SDS011;69904;52.122;5.422;2024-02-15T15:58:13;2.38;;;1.70;;